Time;durP1;ratioP1;P1;durP2;ratioP2;P2;SDS_P1;SDS_P2;PMS_P1;PMS_P2;Temp;Humidity;BMP_temperature;BMP_pressure;BME280_temperature;BME280_humidity;BME280_pressure;Samples;Min_cycle;Max_cycle;Signal;HPM_P1;HPM_P2
2021/12/07 00:01:54;;;;;;;1.02;1.02;;;;;;;3.98;100.00;98959.81;5012398;28;20053;-88
2021/12/07 00:04:57;;;;;;;0.68;0.68;;;;;;;3.98;100.00;98957.06;5000062;28;20103;-88
2021/12/07 00:08:00;;;;;;;8.48;2.20;;;;;;;3.92;100.00;98947.84;5011548;28;20045;-86
2021/12/07 00:11:03;;;;;;;0.50;0.50;;;;;;;3.73;100.00;98947.00;4998808;28;20060;-87
2021/12/07 00:14:15;;;;;;;0.90;0.90;;;;;;;3.74;100.00;98943.81;4999012;28;20044;-86
2021/12/07 00:17:18;;;;;;;2.47;1.23;;;;;;;3.72;100.00;98948.22;5009268;28;20514;-87
2021/12/07 00:20:23;;;;;;;0.82;0.55;;;;;;;3.65;100.00;98954.00;5009393;28;20064;-90
2021/12/07 00:23:26;;;;;;;1.98;1.00;;;;;;;3.63;100.00;98950.94;5012163;28;20173;-90
2021/12/07 00:26:28;;;;;;;0.60;0.60;;;;;;;3.55;100.00;98952.41;5012045;28;20534;-90
2021/12/07 00:29:31;;;;;;;3.30;1.05;;;;;;;3.49;100.00;98937.69;5009403;28;20100;-91
2021/12/07 00:32:40;;;;;;;0.20;0.20;;;;;;;3.30;100.00;98930.53;5012575;28;20068;-90
2021/12/07 00:35:44;;;;;;;2.17;1.05;;;;;;;3.37;100.00;98927.53;5012834;28;20103;-90
2021/12/07 00:38:47;;;;;;;12.30;0.80;;;;;;;3.47;100.00;98923.59;4994326;28;20049;-89
2021/12/07 00:41:52;;;;;;;0.63;0.63;;;;;;;3.36;100.00;98914.97;4999817;28;20153;-88
2021/12/07 00:44:55;;;;;;;4.57;0.45;;;;;;;3.37;100.00;98908.25;5011688;28;20049;-87
2021/12/07 00:48:00;;;;;;;0.38;0.38;;;;;;;3.43;100.00;98901.72;4999624;28;20037;-88
2021/12/07 00:51:03;;;;;;;0.30;0.30;;;;;;;3.57;100.00;98900.44;4997014;28;20084;-91
2021/12/07 00:54:07;;;;;;;0.35;0.35;;;;;;;3.61;100.00;98901.06;4999761;28;20045;-90
2021/12/07 00:57:10;;;;;;;0.20;0.20;;;;;;;3.57;100.00;98894.94;4994834;28;20108;-88
2021/12/07 01:00:15;;;;;;;0.55;0.38;;;;;;;3.56;100.00;98879.63;5005373;28;20092;-89
2021/12/07 01:03:18;;;;;;;0.73;0.73;;;;;;;3.52;100.00;98871.50;5011892;28;20090;-88
2021/12/07 01:06:26;;;;;;;0.57;0.57;;;;;;;3.47;100.00;98868.56;5011917;28;20072;-88
2021/12/07 01:26:03;;;;;;;3.58;0.98;;;;;;;3.15;100.00;98863.50;5008048;28;20041;-90
2021/12/07 01:29:06;;;;;;;1.65;1.08;;;;;;;3.13;100.00;98865.94;5013083;28;20137;-88
2021/12/07 01:35:40;;;;;;;1.20;1.10;;;;;;;3.04;100.00;98853.66;4995785;28;20037;-90
2021/12/07 02:01:51;;;;;;;0.30;0.30;;;;;;;2.92;100.00;98840.75;4991954;28;20525;-89
2021/12/07 02:04:56;;;;;;;0.88;0.88;;;;;;;2.97;100.00;98859.41;5014229;28;20052;-88
2021/12/07 02:07:59;;;;;;;0.50;0.50;;;;;;;2.79;100.00;98851.06;5014112;28;20503;-88
2021/12/07 02:11:03;;;;;;;0.82;0.82;;;;;;;2.85;100.00;98852.03;5002271;28;20052;-87
2021/12/07 02:14:18;;;;;;;0.75;0.75;;;;;;;2.87;100.00;98871.59;5001876;28;20345;-88
2021/12/07 02:17:25;;;;;;;0.40;0.40;;;;;;;2.93;100.00;98880.00;5012823;28;20065;-88
2021/12/07 02:20:30;;;;;;;0.35;0.35;;;;;;;2.82;100.00;98885.13;5013721;28;20049;-88
2021/12/07 02:23:33;;;;;;;0.50;0.50;;;;;;;2.85;100.00;98893.25;4998301;28;20057;-88
2021/12/07 02:26:36;;;;;;;0.20;0.20;;;;;;;2.83;100.00;98892.94;5013616;28;20044;-88
2021/12/07 02:29:40;;;;;;;0.47;0.47;;;;;;;2.85;100.00;98889.72;5001604;28;20107;-88
2021/12/07 02:32:42;;;;;;;0.40;0.40;;;;;;;2.91;100.00;98891.47;5001712;28;20048;-87
2021/12/07 02:35:45;;;;;;;0.30;0.30;;;;;;;2.85;100.00;98893.25;4998600;28;20093;-85
2021/12/07 02:38:49;;;;;;;0.68;0.68;;;;;;;2.87;100.00;98888.09;5001014;28;20309;-86
2021/12/07 02:41:52;;;;;;;0.80;0.80;;;;;;;2.91;100.00;98888.72;4999436;28;20053;-85
2021/12/07 02:44:55;;;;;;;3.40;1.45;;;;;;;2.92;100.00;98884.72;5007173;28;20084;-86
2021/12/07 02:47:58;;;;;;;0.38;0.25;;;;;;;2.82;100.00;98885.88;5001175;28;20159;-86
2021/12/07 02:51:02;;;;;;;2.90;0.65;;;;;;;2.82;100.00;98891.38;5000372;28;20088;-86
2021/12/07 02:54:05;;;;;;;0.20;0.20;;;;;;;2.86;100.00;98880.25;5004344;28;20117;-84
2021/12/07 02:57:08;;;;;;;3.40;1.02;;;;;;;2.86;100.00;98886.53;5000250;28;20400;-86
2021/12/07 03:00:18;;;;;;;0.30;0.30;;;;;;;2.76;100.00;98875.91;5000428;28;20129;-85
2021/12/07 03:03:21;;;;;;;0.55;0.55;;;;;;;2.81;100.00;98861.59;5000347;28;20129;-85
2021/12/07 03:06:36;;;;;;;0.35;0.35;;;;;;;2.84;100.00;98866.97;5012263;28;20075;-86
2021/12/07 03:25:51;;;;;;;0.32;0.32;;;;;;;2.86;100.00;98861.78;5011994;28;20044;-84
2021/12/07 03:27:05;;;;;;;3.58;0.65;;;;;;;3.05;100.00;98877.19;5012151;28;20403;-86
2021/12/07 03:30:09;;;;;;;0.30;0.30;;;;;;;3.14;100.00;98892.25;5007921;28;20048;-86
2021/12/07 03:33:12;;;;;;;0.75;0.75;;;;;;;3.15;100.00;98894.53;5005744;28;20145;-86
2021/12/07 03:36:15;;;;;;;0.47;0.47;;;;;;;3.18;100.00;98895.63;4998700;28;20045;-86
2021/12/07 03:39:18;;;;;;;0.20;0.20;;;;;;;3.11;100.00;98902.16;5011739;28;20049;-86
2021/12/07 03:42:21;;;;;;;1.13;1.08;;;;;;;3.21;100.00;98900.22;4999758;28;20044;-86
2021/12/07 03:45:25;;;;;;;0.45;0.45;;;;;;;3.21;100.00;98889.19;5011424;28;20132;-86
2021/12/07 03:48:28;;;;;;;26.60;1.20;;;;;;;3.17;100.00;98880.31;5010830;28;20589;-85
2021/12/07 03:51:31;;;;;;;0.40;0.40;;;;;;;3.21;100.00;98872.69;5007341;28;20053;-86
2021/12/07 03:54:34;;;;;;;0.30;0.30;;;;;;;3.31;100.00;98877.06;5011839;28;20047;-85
2021/12/07 03:57:37;;;;;;;0.82;0.82;;;;;;;3.30;100.00;98875.50;5010432;28;20387;-85
2021/12/07 04:00:46;;;;;;;0.30;0.30;;;;;;;3.28;100.00;98861.44;5009573;28;20080;-85
2021/12/07 04:03:49;;;;;;;0.60;0.60;;;;;;;3.32;100.00;98856.56;4998799;28;20049;-85
2021/12/07 04:06:52;;;;;;;0.20;0.20;;;;;;;3.27;100.00;98837.91;5011262;28;20119;-85
2021/12/07 04:09:55;;;;;;;0.17;0.17;;;;;;;3.33;100.00;98825.88;5010983;28;20044;-85
2021/12/07 04:12:57;;;;;;;1.50;0.90;;;;;;;3.32;100.00;98809.78;5011996;28;20076;-85
2021/12/07 04:16:00;;;;;;;0.30;0.30;;;;;;;3.35;100.00;98811.66;5011069;28;20056;-85
2021/12/07 04:19:03;;;;;;;0.20;0.20;;;;;;;3.23;100.00;98815.28;5010117;28;20049;-86
2021/12/07 04:22:06;;;;;;;0.30;0.30;;;;;;;3.27;100.00;98802.16;5010004;28;20169;-85
2021/12/07 04:25:12;;;;;;;0.20;0.20;;;;;;;3.15;100.00;98803.75;5011275;28;20124;-85
2021/12/07 04:28:14;;;;;;;4.85;0.80;;;;;;;3.17;100.00;98790.31;4998904;28;20092;-85
2021/12/07 04:31:19;;;;;;;4.55;1.15;;;;;;;3.33;100.00;98778.31;5011359;28;20112;-85
2021/12/07 04:34:23;;;;;;;0.50;0.50;;;;;;;3.43;100.00;98786.16;4995237;28;20040;-86
2021/12/07 04:37:26;;;;;;;0.52;0.47;;;;;;;3.39;100.00;98790.25;5010766;28;20188;-86
2021/12/07 04:40:30;;;;;;;0.40;0.40;;;;;;;3.48;100.00;98779.28;4984157;28;20092;-86
2021/12/07 04:43:35;;;;;;;0.40;0.40;;;;;;;3.57;100.00;98771.81;5010564;28;20049;-85
2021/12/07 04:59:40;;;;;;;0.28;0.28;;;;;;;3.58;100.00;98714.78;5011158;28;20037;-86
2021/12/07 05:02:48;;;;;;;0.20;0.20;;;;;;;3.43;100.00;98719.34;4996669;28;20068;-85
2021/12/07 05:05:52;;;;;;;0.17;0.17;;;;;;;3.56;100.00;98711.72;5011002;28;20359;-86
2021/12/07 05:09:00;;;;;;;0.43;0.43;;;;;;;3.74;100.00;98706.25;5006887;28;20065;-85
2021/12/07 05:15:55;;;;;;;0.25;0.25;;;;;;;3.81;100.00;98675.66;5009555;28;20056;-86
2021/12/07 05:34:28;;;;;;;0.20;0.20;;;;;;;3.81;100.00;98639.88;5015587;28;20044;-86
2021/12/07 05:39:17;;;;;;;0.10;0.10;;;;;;;3.87;100.00;98618.00;4996646;28;20533;-86
2021/12/07 05:42:24;;;;;;;0.28;0.28;;;;;;;3.84;100.00;98606.66;5000785;28;20111;-86
2021/12/07 05:45:32;;;;;;;0.70;0.70;;;;;;;3.94;100.00;98612.94;5005078;28;20045;-85
2021/12/07 05:48:35;;;;;;;4.05;1.40;;;;;;;3.95;100.00;98605.44;5003613;28;20096;-86
2021/12/07 05:51:38;;;;;;;0.20;0.20;;;;;;;4.00;100.00;98618.59;5015937;28;20458;-85
2021/12/07 05:54:40;;;;;;;0.30;0.30;;;;;;;3.98;100.00;98605.28;5015756;28;20110;-85
2021/12/07 05:57:44;;;;;;;0.28;0.28;;;;;;;3.92;100.00;98590.59;5014477;28;20092;-86
2021/12/07 06:00:48;;;;;;;0.63;0.63;;;;;;;3.94;100.00;98582.66;4999001;28;20618;-86
2021/12/07 06:03:52;;;;;;;0.40;0.40;;;;;;;3.91;100.00;98572.53;5004204;28;20131;-85
2021/12/07 06:06:54;;;;;;;0.80;0.80;;;;;;;3.85;100.00;98574.41;4996487;28;20113;-86
2021/12/07 06:09:57;;;;;;;0.73;0.73;;;;;;;3.85;100.00;98563.38;5007717;28;20146;-86
2021/12/07 06:13:01;;;;;;;0.77;0.77;;;;;;;3.80;100.00;98556.50;4987873;28;20137;-86
2021/12/07 06:16:07;;;;;;;27.30;1.65;;;;;;;3.87;100.00;98554.66;4996540;28;20049;-86
2021/12/07 06:19:10;;;;;;;0.25;0.25;;;;;;;3.95;100.00;98553.09;4996026;28;20424;-86
2021/12/07 06:22:13;;;;;;;0.40;0.40;;;;;;;3.99;100.00;98542.69;5007230;28;20081;-86
2021/12/07 06:25:16;;;;;;;0.32;0.32;;;;;;;4.04;100.00;98545.59;5000696;28;20081;-86
2021/12/07 06:28:18;;;;;;;0.20;0.20;;;;;;;3.94;100.00;98532.31;5009039;28;20136;-85
2021/12/07 06:31:21;;;;;;;0.30;0.30;;;;;;;3.91;100.00;98517.47;4995828;28;20081;-86
2021/12/07 06:34:24;;;;;;;0.73;0.52;;;;;;;3.94;100.00;98511.03;4995735;28;20041;-86
2021/12/07 06:37:27;;;;;;;0.35;0.35;;;;;;;3.87;100.00;98494.84;4989842;28;20044;-87
2021/12/07 06:40:30;;;;;;;0.30;0.30;;;;;;;3.94;100.00;98494.53;5014530;28;20048;-86
2021/12/07 06:43:33;;;;;;;3.53;0.63;;;;;;;3.91;100.00;98484.44;4995596;28;20046;-86
2021/12/07 06:46:36;;;;;;;2.65;1.92;;;;;;;3.99;100.00;98466.34;4983385;28;20061;-86
2021/12/07 06:49:39;;;;;;;0.73;0.70;;;;;;;4.02;100.00;98467.41;5002828;28;20117;-86
2021/12/07 06:52:42;;;;;;;0.30;0.30;;;;;;;4.13;100.00;98451.13;5014880;28;20044;-87
2021/12/07 06:55:45;;;;;;;0.30;0.30;;;;;;;4.13;100.00;98429.09;5015121;28;20172;-87
2021/12/07 06:58:48;;;;;;;0.30;0.30;;;;;;;4.13;100.00;98429.88;5014736;28;20040;-87
2021/12/07 07:01:51;;;;;;;0.40;0.40;;;;;;;4.12;100.00;98411.03;4991663;28;20041;-87
2021/12/07 07:04:54;;;;;;;0.93;0.88;;;;;;;4.14;100.00;98414.84;4994905;28;20184;-87
2021/12/07 07:07:57;;;;;;;0.35;0.32;;;;;;;4.23;100.00;98401.03;4995190;28;20041;-87
2021/12/07 07:11:00;;;;;;;0.40;0.40;;;;;;;4.42;100.00;98396.16;5012730;28;20133;-87
2021/12/07 07:14:03;;;;;;;0.20;0.20;;;;;;;4.42;100.00;98377.63;5014641;28;20063;-87
2021/12/07 07:17:06;;;;;;;0.85;0.35;;;;;;;4.51;100.00;98363.78;5011749;28;20045;-89
2021/12/07 07:20:13;;;;;;;1.08;0.50;;;;;;;4.60;100.00;98358.22;4995529;28;20113;-89
2021/12/07 07:23:17;;;;;;;0.50;0.35;;;;;;;4.66;100.00;98343.78;4999600;28;20498;-90
2021/12/07 07:26:20;;;;;;;1.08;0.40;;;;;;;4.69;100.00;98331.78;5004660;28;20049;-90
2021/12/07 07:29:23;;;;;;;0.50;0.50;;;;;;;4.76;100.00;98315.66;4994334;28;20395;-91
2021/12/07 07:32:26;;;;;;;0.63;0.63;;;;;;;4.79;100.00;98298.16;4994469;28;20184;-91
2021/12/07 07:35:29;;;;;;;12.90;1.08;;;;;;;4.89;100.00;98285.03;4997833;28;20440;-90
2021/12/07 07:38:33;;;;;;;0.28;0.25;;;;;;;4.94;100.00;98265.06;5013736;28;20117;-90
2021/12/07 07:41:36;;;;;;;0.80;0.63;;;;;;;4.95;100.00;98250.03;5002594;28;20509;-91
2021/12/07 07:44:39;;;;;;;19.42;1.52;;;;;;;4.90;100.00;98234.91;5001803;28;20046;-91
2021/12/07 07:47:42;;;;;;;4.38;0.85;;;;;;;4.93;100.00;98214.66;4988454;28;20040;-87
2021/12/07 07:50:47;;;;;;;2.22;0.77;;;;;;;4.87;100.00;98219.34;5014001;28;20103;-93
2021/12/07 07:53:50;;;;;;;0.28;0.28;;;;;;;4.86;100.00;98215.03;5000432;28;20272;-94
2021/12/07 07:56:53;;;;;;;0.20;0.20;;;;;;;4.93;100.00;98219.41;5013813;28;20073;-95
2021/12/07 07:59:55;;;;;;;1.00;0.40;;;;;;;4.97;100.00;98208.94;5001315;28;20106;-95
2021/12/07 08:02:58;;;;;;;0.20;0.20;;;;;;;5.03;100.00;98199.50;5015916;28;20053;-95
2021/12/07 08:06:01;;;;;;;0.10;0.10;;;;;;;5.04;100.00;98203.03;5017864;28;20076;-96
2021/12/07 08:09:05;;;;;;;0.10;0.10;;;;;;;5.04;100.00;98195.53;5000411;28;20052;-96
2021/12/07 08:12:08;;;;;;;0.52;0.50;;;;;;;5.12;100.00;98173.81;5002804;28;20045;-92
2021/12/07 08:15:11;;;;;;;0.13;0.13;;;;;;;5.15;100.00;98159.84;5014176;28;20143;-92
2021/12/07 08:18:15;;;;;;;8.02;0.55;;;;;;;5.14;100.00;98129.94;5005484;28;20529;-96
2021/12/07 08:21:18;;;;;;;4.80;0.82;;;;;;;5.00;100.00;98125.25;5023269;28;20081;-96
2021/12/07 08:24:21;;;;;;;0.45;0.45;;;;;;;5.04;100.00;98132.09;5000151;28;20056;-96
2021/12/07 08:27:26;;;;;;;0.20;0.20;;;;;;;5.08;100.00;98132.63;5023972;28;20045;-96
2021/12/07 08:30:29;;;;;;;0.85;0.57;;;;;;;5.17;100.00;98112.44;5010950;28;20167;-96
2021/12/07 08:33:33;;;;;;;0.10;0.10;;;;;;;5.21;100.00;98119.28;4997324;28;20053;-96
2021/12/07 08:36:36;;;;;;;0.57;0.38;;;;;;;5.27;100.00;98094.50;5012927;28;20530;-93
2021/12/07 08:39:40;;;;;;;0.60;0.60;;;;;;;5.28;100.00;98091.25;5001527;28;20127;-90
2021/12/07 08:42:43;;;;;;;0.20;0.20;;;;;;;5.35;100.00;98065.25;5013701;28;20048;-92
2021/12/07 08:45:46;;;;;;;0.40;0.40;;;;;;;5.36;100.00;98059.25;5005726;28;20131;-91
2021/12/07 08:48:49;;;;;;;0.10;0.10;;;;;;;5.42;100.00;98051.03;4995051;28;20405;-92
2021/12/07 08:51:53;;;;;;;1.77;0.73;;;;;;;5.45;100.00;98022.47;5017014;28;20095;-92
2021/12/07 09:01:31;;;;;;;0.38;0.38;;;;;;;5.63;100.00;98022.13;5002876;28;20049;-91
2021/12/07 09:04:33;;;;;;;0.15;0.15;;;;;;;5.67;100.00;98010.88;5007776;28;20103;-96
2021/12/07 09:07:37;;;;;;;0.30;0.30;;;;;;;5.69;100.00;97998.13;5021500;28;20121;-96
2021/12/07 09:10:39;;;;;;;0.65;0.45;;;;;;;5.77;100.00;97982.63;4987295;28;20108;-96
2021/12/07 09:13:43;;;;;;;0.32;0.32;;;;;;;5.83;100.00;97972.38;5004916;28;20128;-96
2021/12/07 09:16:46;;;;;;;14.90;0.95;;;;;;;5.88;100.00;97957.13;4990215;28;20100;-96
2021/12/07 09:19:50;;;;;;;0.63;0.63;;;;;;;5.87;100.00;97925.97;5020476;28;20061;-96
2021/12/07 09:22:53;;;;;;;0.43;0.43;;;;;;;5.93;100.00;97904.66;5021585;28;20109;-96
2021/12/07 09:25:56;;;;;;;0.20;0.20;;;;;;;5.92;100.00;97877.56;5025808;28;20125;-95
2021/12/07 09:28:59;;;;;;;0.30;0.30;;;;;;;5.93;100.00;97852.19;5029425;28;20087;-96
2021/12/07 09:32:04;;;;;;;0.17;0.17;;;;;;;6.05;100.00;97839.97;5021435;28;20159;-96
2021/12/07 09:35:08;;;;;;;0.15;0.15;;;;;;;6.03;100.00;97839.72;5026944;28;20040;-93
2021/12/07 09:38:12;;;;;;;0.30;0.30;;;;;;;6.04;100.00;97824.63;5020815;28;20056;-96
2021/12/07 09:41:15;;;;;;;0.10;0.10;;;;;;;6.08;100.00;97811.38;5023940;28;20044;-92
2021/12/07 09:44:18;;;;;;;0.30;0.30;;;;;;;6.16;100.00;97813.63;5020272;28;20438;-95
2021/12/07 09:47:21;;;;;;;1.55;0.70;;;;;;;6.24;100.00;97803.66;5017833;28;20056;-96
2021/12/07 09:50:25;;;;;;;0.20;0.20;;;;;;;6.28;100.00;97771.00;5007639;28;20041;-95
2021/12/07 09:53:29;;;;;;;0.40;0.40;;;;;;;6.30;100.00;97762.97;5024113;28;20102;-96
2021/12/07 09:56:32;;;;;;;0.25;0.25;;;;;;;6.41;100.00;97757.47;5020204;28;20048;-96
2021/12/07 09:59:36;;;;;;;0.28;0.28;;;;;;;6.52;100.00;97741.66;5019232;28;20080;-94
2021/12/07 10:02:38;;;;;;;1.88;0.73;;;;;;;6.58;100.00;97722.31;5021828;28;20081;-96
2021/12/07 10:05:41;;;;;;;0.38;0.38;;;;;;;6.68;100.00;97704.22;5020848;28;20100;-96
2021/12/07 10:08:45;;;;;;;0.10;0.10;;;;;;;6.76;100.00;97694.16;5022109;28;20052;-95
2021/12/07 10:11:52;;;;;;;1.15;0.17;;;;;;;6.78;100.00;97669.50;5008393;28;20049;-96
2021/12/07 10:15:04;;;;;;;15.52;0.88;;;;;;;6.81;100.00;97649.91;5001194;28;20081;-96
2021/12/07 10:18:13;;;;;;;2.55;0.28;;;;;;;6.79;100.00;97627.53;5019030;28;20395;-94
2021/12/07 10:21:24;;;;;;;0.10;0.10;;;;;;;6.87;100.00;97627.78;5022992;28;20122;-96
2021/12/07 10:24:37;;;;;;;0.75;0.45;;;;;;;6.99;100.00;97598.09;5031442;28;20033;-96
2021/12/07 10:27:44;;;;;;;0.70;0.20;;;;;;;7.02;100.00;97589.50;5021230;28;20059;-96
2021/12/07 10:30:49;;;;;;;0.90;0.43;;;;;;;7.07;100.00;97580.47;4989503;28;20100;-95
2021/12/07 10:34:03;;;;;;;0.40;0.40;;;;;;;7.09;100.00;97583.47;5011474;28;20067;-96
2021/12/07 10:37:15;;;;;;;0.10;0.10;;;;;;;7.13;100.00;97549.97;5022074;28;20072;-95
2021/12/07 10:40:18;;;;;;;0.40;0.40;;;;;;;7.17;100.00;97528.34;5015031;28;20060;-95
2021/12/07 10:44:01;;;;;;;0.20;0.20;;;;;;;7.26;100.00;97514.97;5021945;28;20061;-95
2021/12/07 10:47:13;;;;;;;0.80;0.70;;;;;;;7.35;100.00;97514.69;5005421;28;20088;-96
2021/12/07 10:50:19;;;;;;;0.30;0.30;;;;;;;7.41;100.00;97493.25;5009476;28;20125;-96
2021/12/07 10:53:22;;;;;;;0.32;0.32;;;;;;;7.49;100.00;97483.13;4995045;28;20076;-96
2021/12/07 10:56:34;;;;;;;9.85;2.08;;;;;;;7.46;100.00;97456.47;5024205;28;20049;-96
2021/12/07 10:59:38;;;;;;;0.38;0.30;;;;;;;7.48;100.00;97429.03;4997033;28;20121;-96
2021/12/07 11:03:02;;;;;;;2.70;0.20;;;;;;;7.46;100.00;97428.78;5019460;28;20073;-96
2021/12/07 11:06:05;;;;;;;0.20;0.20;;;;;;;7.40;100.00;97403.16;5007164;28;20040;-95
2021/12/07 11:09:08;;;;;;;0.20;0.20;;;;;;;7.42;100.00;97383.25;5016518;28;20125;-93
2021/12/07 11:12:20;;;;;;;0.50;0.50;;;;;;;7.51;100.00;97375.38;5001641;28;20072;-96
2021/12/07 11:15:26;;;;;;;0.90;0.57;;;;;;;7.60;100.00;97361.19;5024668;28;20459;-96
2021/12/07 11:18:30;;;;;;;0.68;0.63;;;;;;;7.69;100.00;97351.09;5020533;28;20096;-96
2021/12/07 11:21:33;;;;;;;2.13;0.40;;;;;;;7.78;100.00;97328.56;5012037;28;20096;-96
2021/12/07 11:24:40;;;;;;;8.77;1.65;;;;;;;7.81;100.00;97308.16;5095634;23;20510;-49
2021/12/07 11:31:29;;;;;;;0.98;0.35;;;;;;;7.89;100.00;97284.88;5092607;28;20181;-48
2021/12/07 11:34:40;;;;;;;0.20;0.20;;;;;;;7.95;100.00;97268.22;5092073;28;20101;-49
2021/12/07 11:37:46;;;;;;;0.35;0.35;;;;;;;7.95;100.00;97246.78;5077660;28;20393;-50
2021/12/07 11:40:49;;;;;;;0.13;0.13;;;;;;;7.92;100.00;97231.22;5091834;28;20055;-49
2021/12/07 11:43:54;;;;;;;8.20;0.50;;;;;;;7.90;100.00;97200.50;5076481;28;20050;-49
2021/12/07 11:46:59;;;;;;;6.32;1.42;;;;;;;7.86;100.00;97183.41;5092082;28;20043;-49
2021/12/07 11:50:13;;;;;;;0.15;0.15;;;;;;;7.92;100.00;97175.03;5082234;28;20419;-50
2021/12/07 11:53:23;;;;;;;14.88;1.48;;;;;;;7.90;100.00;97149.88;5092271;28;20046;-50
2021/12/07 11:56:27;;;;;;;0.65;0.25;;;;;;;7.85;100.00;97136.84;5080969;28;20092;-53
2021/12/07 11:59:31;;;;;;;0.17;0.17;;;;;;;7.82;100.00;97137.91;5091468;28;20047;-54
2021/12/07 12:02:34;;;;;;;0.20;0.20;;;;;;;7.88;100.00;97131.00;5091408;28;20585;-51
2021/12/07 12:05:39;;;;;;;3.70;0.45;;;;;;;7.95;100.00;97108.22;5091438;28;20131;-50
2021/12/07 12:08:42;;;;;;;4.25;1.23;;;;;;;7.97;100.00;97094.59;5091831;28;20403;-51
2021/12/07 12:12:16;;;;;;;0.52;0.52;;;;;;;8.02;100.00;97074.38;5092435;28;20235;-49
2021/12/07 12:15:37;;;;;;;0.20;0.20;;;;;;;8.25;100.00;97058.19;5092168;28;20494;-51
2021/12/07 12:18:56;;;;;;;2.63;0.43;;;;;;;8.45;100.00;97043.75;5085531;28;20050;-50
2021/12/07 12:22:11;;;;;;;1.58;0.80;;;;;;;8.60;100.00;97032.91;5080870;28;20043;-50
2021/12/07 12:25:19;;;;;;;0.30;0.30;;;;;;;8.67;100.00;97026.72;5087230;28;20058;-50
2021/12/07 12:28:32;;;;;;;4.97;0.60;;;;;;;8.70;100.00;97009.03;5079175;28;20093;-49
2021/12/07 12:31:52;;;;;;;0.30;0.30;;;;;;;8.65;100.00;96984.91;5091147;28;20051;-50
2021/12/07 12:34:57;;;;;;;1.80;0.40;;;;;;;8.67;100.00;96971.25;5091197;28;20047;-49
2021/12/07 12:38:01;;;;;;;0.25;0.25;;;;;;;8.64;100.00;96966.75;5091296;28;20097;-49
2021/12/07 12:41:07;;;;;;;0.20;0.10;;;;;;;8.69;100.00;96946.50;5078503;28;20062;-50
2021/12/07 12:44:15;;;;;;;2.75;0.75;;;;;;;8.76;100.00;96917.38;5075602;28;20048;-50
2021/12/07 12:47:19;;;;;;;0.38;0.28;;;;;;;8.89;100.00;96931.97;5088351;28;20185;-50
2021/12/07 12:50:27;;;;;;;1.10;0.85;;;;;;;8.88;100.00;96905.50;5076776;28;20131;-51
2021/12/07 12:53:34;;;;;;;1.60;0.57;;;;;;;8.77;100.00;96880.75;5090668;28;20089;-51
2021/12/07 12:56:39;;;;;;;1.25;0.75;;;;;;;8.75;100.00;96886.09;5089741;28;20491;-54
2021/12/07 12:59:46;;;;;;;0.10;0.10;;;;;;;8.67;100.00;96888.03;5090603;28;20035;-52
2021/12/07 13:02:54;;;;;;;0.20;0.20;;;;;;;8.73;100.00;96858.13;5077064;28;20047;-51
2021/12/07 13:06:01;;;;;;;0.10;0.10;;;;;;;8.73;100.00;96841.50;5091474;28;20050;-51
2021/12/07 13:09:10;;;;;;;1.52;0.68;;;;;;;8.73;100.00;96830.41;5089362;28;20175;-50
2021/12/07 13:12:20;;;;;;;2.30;0.63;;;;;;;8.70;100.00;96812.06;5091255;28;20074;-51
2021/12/07 13:15:35;;;;;;;0.10;0.10;;;;;;;8.73;100.00;96797.09;5091292;28;20093;-51
2021/12/07 13:18:40;;;;;;;0.10;0.10;;;;;;;8.71;100.00;96780.25;5078678;28;20065;-51
2021/12/07 13:21:46;;;;;;;0.10;0.10;;;;;;;8.75;100.00;96783.44;5090922;28;20039;-54
2021/12/07 13:24:56;;;;;;;0.40;0.40;;;;;;;8.78;100.00;96748.31;5078505;28;20478;-50
2021/12/07 13:28:14;;;;;;;0.30;0.10;;;;;;;8.70;100.00;96734.38;5091243;28;20396;-51
2021/12/07 13:31:18;;;;;;;0.63;0.45;;;;;;;8.78;100.00;96724.09;5079406;28;20530;-49
2021/12/07 13:34:27;;;;;;;2.83;0.45;;;;;;;8.77;100.00;96700.41;5094804;28;20075;-51
2021/12/07 13:37:47;;;;;;;1.40;0.32;;;;;;;8.84;100.00;96701.78;5091814;28;20459;-51
2021/12/07 13:40:53;;;;;;;0.15;0.15;;;;;;;8.94;100.00;96695.22;5078429;28;20047;-50
2021/12/07 13:43:56;;;;;;;1.65;0.40;;;;;;;9.00;100.00;96670.88;5094838;28;20097;-51
2021/12/07 13:47:21;;;;;;;0.63;0.63;;;;;;;9.13;100.00;96668.00;5079665;28;20549;-50
2021/12/07 13:50:29;;;;;;;0.30;0.30;;;;;;;9.15;100.00;96648.03;5094641;28;20395;-51
2021/12/07 13:53:34;;;;;;;0.10;0.10;;;;;;;9.26;100.00;96631.09;5094120;28;20119;-51
2021/12/07 13:56:38;;;;;;;0.20;0.20;;;;;;;9.23;100.00;96615.50;5088697;28;20074;-50
2021/12/07 13:59:41;;;;;;;0.32;0.30;;;;;;;9.18;100.00;96592.16;5086632;28;20050;-51
2021/12/07 14:02:49;;;;;;;0.10;0.10;;;;;;;9.18;100.00;96591.44;5093742;28;20043;-50
2021/12/07 14:05:53;;;;;;;0.85;0.50;;;;;;;9.18;100.00;96603.25;5093763;28;20051;-51
2021/12/07 14:09:10;;;;;;;2.05;0.90;;;;;;;9.13;100.00;96606.94;5090419;28;20047;-51
2021/12/07 14:12:13;;;;;;;1.95;0.50;;;;;;;9.16;100.00;96693.91;5094174;28;20047;-52
2021/12/07 14:15:43;;;;;;;0.30;0.20;;;;;;;9.08;100.00;96710.53;5081749;28;20051;-51
2021/12/07 14:18:46;;;;;;;3.75;0.65;;;;;;;8.87;100.00;96709.03;5093759;28;20047;-50
2021/12/07 14:21:50;;;;;;;0.10;0.08;;;;;;;8.64;100.00;96692.13;5093180;28;20050;-50
2021/12/07 14:24:53;;;;;;;0.38;0.32;;;;;;;8.56;100.00;96693.34;5092538;28;20046;-50
2021/12/07 14:27:58;;;;;;;0.30;0.30;;;;;;;8.48;100.00;96676.63;5093105;28;20396;-50
2021/12/07 14:31:12;;;;;;;0.30;0.30;;;;;;;8.36;100.00;96670.59;5092871;28;20144;-50
2021/12/07 14:34:20;;;;;;;0.28;0.22;;;;;;;8.33;100.00;96659.84;5093594;28;20131;-50
2021/12/07 14:37:23;;;;;;;0.75;0.75;;;;;;;8.30;100.00;96641.50;5079497;28;20043;-50
2021/12/07 14:40:26;;;;;;;4.93;0.68;;;;;;;8.23;100.00;96617.19;5078144;28;20443;-50
2021/12/07 14:43:30;;;;;;;0.10;0.10;;;;;;;8.12;100.00;96586.97;5073490;28;20101;-51
2021/12/07 14:46:34;;;;;;;0.10;0.10;;;;;;;8.01;100.00;96573.34;5092422;28;20047;-52
2021/12/07 14:49:40;;;;;;;0.65;0.65;;;;;;;7.93;100.00;96580.81;5090553;28;20071;-54
2021/12/07 14:52:43;;;;;;;0.70;0.70;;;;;;;7.84;100.00;96582.00;5093356;28;20101;-51
2021/12/07 14:55:47;;;;;;;0.10;0.10;;;;;;;7.78;100.00;96580.66;5088754;28;20070;-50
2021/12/07 14:58:53;;;;;;;0.30;0.30;;;;;;;7.68;100.00;96574.06;5092773;28;20059;-50
2021/12/07 15:01:57;;;;;;;1.23;0.75;;;;;;;7.59;100.00;96567.69;5093052;28;20050;-50
2021/12/07 15:05:05;;;;;;;0.30;0.30;;;;;;;7.55;100.00;96558.97;5093178;28;20388;-50
2021/12/07 15:08:09;;;;;;;0.20;0.20;;;;;;;7.58;100.00;96535.75;5093010;28;20400;-50
2021/12/07 15:11:13;;;;;;;9.25;0.93;;;;;;;7.60;100.00;96535.94;5092609;28;20055;-52
2021/12/07 15:14:19;;;;;;;2.00;0.73;;;;;;;7.58;100.00;96537.75;5092730;28;20051;-54
2021/12/07 15:17:23;;;;;;;0.40;0.30;;;;;;;7.55;100.00;96523.00;5063493;28;20105;-50
2021/12/07 15:20:28;;;;;;;1.48;0.77;;;;;;;7.57;100.00;96536.28;5092917;28;20167;-49
2021/12/07 15:23:31;;;;;;;1.33;1.10;;;;;;;7.61;100.00;96526.38;5076793;28;20047;-50
2021/12/07 15:26:35;;;;;;;3.20;1.00;;;;;;;7.62;100.00;96522.31;5072921;28;20537;-50
2021/12/07 15:29:38;;;;;;;9.82;0.68;;;;;;;7.60;100.00;96513.06;5068254;28;20046;-50
2021/12/07 15:32:41;;;;;;;0.10;0.10;;;;;;;7.52;100.00;96501.91;5092456;28;20042;-47
2021/12/07 15:35:45;;;;;;;0.25;0.22;;;;;;;7.61;100.00;96495.91;5077386;28;20096;-48
2021/12/07 15:38:49;;;;;;;1.27;0.60;;;;;;;7.54;100.00;96491.03;5092389;28;20309;-48
2021/12/07 15:41:58;;;;;;;0.77;0.65;;;;;;;7.56;100.00;96477.38;5091859;28;20129;-50
2021/12/07 15:45:09;;;;;;;0.15;0.15;;;;;;;7.53;100.00;96453.56;5092654;28;20185;-50
2021/12/07 15:48:11;;;;;;;0.20;0.20;;;;;;;7.46;100.00;96442.41;5092761;28;20419;-50
2021/12/07 15:51:14;;;;;;;0.30;0.30;;;;;;;7.48;100.00;96443.34;5092469;28;20046;-49
2021/12/07 15:54:17;;;;;;;14.20;0.95;;;;;;;7.52;100.00;96427.16;5092361;28;20112;-49
2021/12/07 15:57:20;;;;;;;0.75;0.70;;;;;;;7.46;100.00;96421.00;5092467;28;20055;-50
2021/12/07 16:00:37;;;;;;;1.83;0.45;;;;;;;7.44;100.00;96417.28;5092291;28;20043;-50
2021/12/07 16:03:48;;;;;;;13.35;0.73;;;;;;;7.34;100.00;96408.66;5074991;28;20499;-50
2021/12/07 16:06:51;;;;;;;0.25;0.25;;;;;;;7.35;100.00;96407.41;5091250;28;20047;-49
2021/12/07 16:10:06;;;;;;;3.40;0.77;;;;;;;7.44;100.00;96418.03;5076577;28;20404;-50
2021/12/07 16:13:14;;;;;;;1.98;0.73;;;;;;;7.48;100.00;96429.50;5091798;28;20514;-51
2021/12/07 16:16:21;;;;;;;1.13;0.52;;;;;;;7.59;100.00;96432.03;5078906;28;20058;-51